Time;durP1;ratioP1;P1;durP2;ratioP2;P2;SDS_P1;SDS_P2;PMS_P1;PMS_P2;Temp;Humidity;BMP_temperature;BMP_pressure;BME280_temperature;BME280_humidity;BME280_pressure;Samples;Min_cycle;Max_cycle;Signal;HPM_P1;HPM_P2
2023/07/16 00:01:10;;;;;;;6.13;3.63;;;17.40;99.90;;;;;;4897813;29;20036;-84
2023/07/16 00:03:36;;;;;;;6.35;4.07;;;17.30;99.90;;;;;;4894832;29;20052;-84
2023/07/16 00:06:02;;;;;;;8.27;4.80;;;17.30;99.90;;;;;;4887326;29;20036;-84
2023/07/16 00:08:27;;;;;;;7.05;4.30;;;17.30;99.90;;;;;;4897311;29;20039;-84
2023/07/16 00:10:53;;;;;;;7.80;4.60;;;17.20;99.90;;;;;;4881311;29;20474;-84
2023/07/16 00:13:19;;;;;;;5.95;3.95;;;17.20;99.90;;;;;;4897853;29;20096;-84
2023/07/16 00:15:45;;;;;;;6.90;3.75;;;17.20;99.90;;;;;;4896568;29;20072;-84
2023/07/16 00:18:10;;;;;;;5.32;3.17;;;17.20;99.90;;;;;;4905636;29;20050;-84
2023/07/16 00:20:36;;;;;;;5.75;3.35;;;17.10;99.90;;;;;;4881821;29;20406;-84
2023/07/16 00:23:02;;;;;;;5.60;2.88;;;17.10;99.90;;;;;;4896220;29;20511;-84
2023/07/16 00:25:27;;;;;;;7.80;3.45;;;17.10;99.90;;;;;;4897614;29;20039;-85
2023/07/16 00:27:53;;;;;;;7.25;3.13;;;17.10;99.90;;;;;;4896221;29;20119;-84
2023/07/16 00:30:19;;;;;;;5.07;3.10;;;17.00;99.90;;;;;;4897424;29;20123;-84
2023/07/16 00:32:45;;;;;;;5.45;2.88;;;17.00;99.90;;;;;;4895739;29;20032;-84
2023/07/16 00:35:10;;;;;;;6.38;3.30;;;16.90;99.90;;;;;;4881619;29;20044;-84
2023/07/16 00:37:36;;;;;;;6.57;3.17;;;16.90;99.90;;;;;;4896995;29;20035;-84
2023/07/16 00:40:02;;;;;;;6.45;3.58;;;16.80;99.90;;;;;;4896628;29;20103;-84
2023/07/16 00:42:27;;;;;;;6.70;3.35;;;16.80;99.90;;;;;;4896097;29;20517;-84
2023/07/16 00:44:53;;;;;;;6.55;3.45;;;16.80;99.90;;;;;;4880341;29;20051;-84
2023/07/16 00:47:19;;;;;;;6.40;3.40;;;16.80;99.90;;;;;;4880889;29;20051;-84
2023/07/16 00:49:45;;;;;;;5.93;3.50;;;16.70;99.90;;;;;;4880379;29;20111;-84
2023/07/16 00:52:16;;;;;;;6.45;3.50;;;16.70;99.90;;;;;;4896895;29;20123;-85
2023/07/16 00:54:42;;;;;;;4.72;3.45;;;16.70;99.90;;;;;;4881419;29;20044;-83
2023/07/16 00:57:08;;;;;;;6.18;3.33;;;16.70;99.90;;;;;;4898107;29;20047;-84
2023/07/16 00:59:33;;;;;;;5.13;3.38;;;16.70;99.90;;;;;;4906593;29;20059;-85
2023/07/16 01:01:59;;;;;;;4.53;3.10;;;16.60;99.90;;;;;;4892669;29;20146;-84
2023/07/16 01:04:25;;;;;;;5.20;3.58;;;16.60;99.90;;;;;;4912996;29;20055;-85
2023/07/16 01:06:55;;;;;;;7.65;3.90;;;16.60;99.90;;;;;;4895884;29;20514;-85
2023/07/16 01:09:21;;;;;;;5.45;4.32;;;16.60;99.90;;;;;;4883095;29;20055;-85
2023/07/16 01:11:49;;;;;;;8.23;4.20;;;16.50;99.90;;;;;;4881673;29;20420;-85
2023/07/16 01:14:17;;;;;;;7.15;4.18;;;16.50;99.90;;;;;;4899779;29;20047;-84
2023/07/16 01:16:43;;;;;;;5.50;4.05;;;16.50;99.90;;;;;;4898446;29;20055;-85
2023/07/16 01:19:10;;;;;;;4.75;4.05;;;16.50;99.90;;;;;;4880858;29;20043;-85
2023/07/16 01:21:35;;;;;;;8.45;4.82;;;16.50;99.90;;;;;;4880735;29;20040;-84
2023/07/16 01:24:55;;;;;;;11.43;5.22;;;16.50;99.90;;;;;;4886838;29;20062;-83
2023/07/16 01:27:42;;;;;;;6.70;3.95;;;16.50;99.90;;;;;;4831598;29;20084;-85
2023/07/16 01:30:11;;;;;;;5.15;3.75;;;16.50;99.90;;;;;;4879725;29;20040;-85
2023/07/16 01:32:37;;;;;;;6.30;4.63;;;16.40;99.90;;;;;;4879900;29;20482;-85
2023/07/16 01:35:05;;;;;;;8.90;5.00;;;16.50;99.90;;;;;;4881027;29;20092;-85
2023/07/16 01:37:32;;;;;;;8.98;4.28;;;16.50;99.90;;;;;;4896026;29;20040;-85
2023/07/16 01:39:58;;;;;;;5.95;3.75;;;16.50;99.90;;;;;;4895855;29;20165;-85
2023/07/16 01:42:23;;;;;;;9.60;3.75;;;16.50;99.90;;;;;;4906241;29;20131;-84
2023/07/16 01:44:49;;;;;;;5.93;3.78;;;16.50;99.90;;;;;;4879345;29;20047;-84
2023/07/16 01:47:48;;;;;;;10.35;3.78;;;16.50;99.90;;;;;;4895251;29;20073;-85
2023/07/16 01:50:14;;;;;;;7.20;3.90;;;16.50;99.90;;;;;;4890226;29;20065;-85
2023/07/16 01:52:39;;;;;;;5.55;3.40;;;16.50;99.90;;;;;;4879586;29;20036;-85
2023/07/16 01:55:06;;;;;;;9.50;4.15;;;16.60;99.90;;;;;;4909484;29;20218;-85
2023/07/16 01:57:31;;;;;;;6.18;3.65;;;16.50;99.90;;;;;;4880326;29;20044;-86
2023/07/16 01:59:57;;;;;;;8.32;3.88;;;16.50;99.90;;;;;;4896181;29;20032;-86
2023/07/16 02:02:23;;;;;;;9.13;4.50;;;16.50;99.90;;;;;;4896220;29;20036;-84
2023/07/16 02:04:48;;;;;;;5.75;3.60;;;16.50;99.90;;;;;;4880755;29;20430;-84
2023/07/16 02:07:14;;;;;;;6.00;3.50;;;16.50;99.90;;;;;;4895960;29;20036;-85
2023/07/16 02:09:40;;;;;;;8.60;4.50;;;16.40;99.90;;;;;;4896266;29;20124;-84
2023/07/16 02:12:06;;;;;;;7.07;4.35;;;16.40;99.90;;;;;;4891974;29;20043;-85
2023/07/16 02:14:32;;;;;;;9.25;4.60;;;16.40;99.90;;;;;;4884224;29;20048;-85
2023/07/16 02:16:57;;;;;;;10.07;4.20;;;16.40;99.90;;;;;;4888948;29;20402;-85
2023/07/16 02:19:25;;;;;;;5.35;4.00;;;16.30;99.90;;;;;;4897217;29;20039;-84
2023/07/16 02:21:51;;;;;;;8.38;3.80;;;16.30;99.90;;;;;;4882754;29;20715;-86
2023/07/16 02:24:16;;;;;;;6.93;3.78;;;16.30;99.90;;;;;;4910076;29;20139;-84
2023/07/16 02:26:42;;;;;;;9.60;4.13;;;16.30;99.90;;;;;;4914913;29;20035;-85
2023/07/16 02:29:08;;;;;;;8.82;3.92;;;16.30;99.90;;;;;;4883839;29;20032;-84
2023/07/16 02:31:35;;;;;;;7.15;3.88;;;16.20;99.90;;;;;;4883490;29;20108;-85
2023/07/16 02:34:00;;;;;;;8.90;4.28;;;16.30;99.90;;;;;;4898707;29;20044;-85
2023/07/16 02:36:26;;;;;;;7.40;3.70;;;16.20;99.90;;;;;;4907758;29;20039;-84
2023/07/16 02:38:52;;;;;;;8.57;3.75;;;16.20;99.90;;;;;;4899316;29;20094;-85
2023/07/16 02:41:17;;;;;;;6.78;3.83;;;16.20;99.90;;;;;;4898004;29;20459;-85
2023/07/16 02:43:45;;;;;;;7.63;4.25;;;16.20;99.90;;;;;;4910981;29;20059;-85
2023/07/16 02:46:11;;;;;;;6.22;3.67;;;16.10;99.90;;;;;;4902204;29;20047;-86
2023/07/16 02:48:37;;;;;;;9.00;4.18;;;16.10;99.90;;;;;;4898196;29;20036;-85
2023/07/16 02:51:02;;;;;;;8.60;4.18;;;16.20;99.90;;;;;;4906239;29;20068;-85
2023/07/16 02:53:28;;;;;;;6.85;4.45;;;16.20;99.90;;;;;;4894502;29;20391;-85
2023/07/16 02:55:53;;;;;;;8.25;4.35;;;16.20;99.90;;;;;;4899107;29;20044;-84
2023/07/16 02:58:19;;;;;;;7.65;4.40;;;16.20;99.90;;;;;;4883456;29;20036;-84
2023/07/16 03:00:45;;;;;;;8.05;4.00;;;16.20;99.90;;;;;;4887649;29;20059;-85
2023/07/16 03:03:10;;;;;;;10.32;4.85;;;16.20;99.90;;;;;;4898963;29;20040;-84
2023/07/16 03:05:36;;;;;;;8.35;4.15;;;16.20;99.90;;;;;;4892873;29;20036;-85
2023/07/16 03:08:02;;;;;;;8.95;4.32;;;16.10;99.90;;;;;;4881784;29;20084;-84
2023/07/16 03:10:28;;;;;;;9.13;4.55;;;16.10;99.90;;;;;;4897624;29;20036;-85
2023/07/16 03:12:54;;;;;;;6.93;4.20;;;16.10;99.90;;;;;;4880770;29;20123;-84
2023/07/16 03:15:19;;;;;;;7.15;4.60;;;16.10;99.90;;;;;;4897577;29;20111;-85
2023/07/16 03:17:45;;;;;;;6.45;4.43;;;16.10;99.90;;;;;;4901224;29;20047;-85
2023/07/16 03:20:11;;;;;;;6.90;4.30;;;16.00;99.90;;;;;;4910931;29;20039;-84
2023/07/16 03:22:36;;;;;;;8.55;4.43;;;16.00;99.90;;;;;;4882576;29;20044;-84
2023/07/16 03:25:02;;;;;;;7.25;4.57;;;16.00;99.90;;;;;;4898455;29;20044;-85
2023/07/16 03:27:28;;;;;;;8.25;4.30;;;16.00;99.90;;;;;;4884009;29;20731;-85
2023/07/16 03:29:54;;;;;;;9.40;4.40;;;16.00;99.90;;;;;;4882051;29;20506;-85
2023/07/16 03:32:20;;;;;;;6.00;4.22;;;15.90;99.90;;;;;;4905779;29;20075;-84
2023/07/16 03:34:45;;;;;;;19.25;5.50;;;15.90;99.90;;;;;;4903745;29;20107;-84
2023/07/16 03:37:11;;;;;;;9.02;3.90;;;15.90;99.90;;;;;;4897156;29;20047;-85
2023/07/16 03:39:36;;;;;;;9.45;4.65;;;15.90;99.90;;;;;;4897676;29;20044;-85
2023/07/16 03:42:02;;;;;;;8.23;4.03;;;15.90;99.90;;;;;;4881648;29;20035;-85
2023/07/16 03:44:29;;;;;;;11.13;4.30;;;15.90;99.90;;;;;;4909767;29;20044;-85
2023/07/16 03:46:55;;;;;;;10.07;4.50;;;15.90;99.90;;;;;;4895484;29;20135;-86
2023/07/16 03:49:21;;;;;;;5.70;4.13;;;15.90;99.90;;;;;;4895824;29;20108;-85
2023/07/16 03:51:47;;;;;;;7.57;4.53;;;15.90;99.90;;;;;;4927983;29;20052;-84
2023/07/16 03:54:13;;;;;;;9.60;4.53;;;15.90;99.90;;;;;;4901818;29;20155;-85
2023/07/16 03:56:38;;;;;;;10.13;4.40;;;15.80;99.90;;;;;;4897353;29;20032;-85
2023/07/16 03:59:04;;;;;;;9.50;4.32;;;15.90;99.90;;;;;;4880992;29;20395;-85
2023/07/16 04:01:30;;;;;;;8.52;4.55;;;15.90;99.90;;;;;;4897452;29;20528;-86
2023/07/16 04:03:55;;;;;;;7.90;5.05;;;15.90;99.90;;;;;;4896534;29;20037;-85
2023/07/16 04:06:21;;;;;;;9.65;4.22;;;15.90;99.90;;;;;;4881333;29;20058;-85
2023/07/16 04:08:46;;;;;;;8.95;4.70;;;15.90;99.90;;;;;;4896875;29;20044;-85
2023/07/16 04:11:12;;;;;;;10.75;5.10;;;15.90;99.90;;;;;;4881566;29;20047;-84
2023/07/16 04:13:38;;;;;;;8.82;4.85;;;15.90;99.90;;;;;;4898058;29;20471;-85
2023/07/16 04:16:03;;;;;;;12.13;5.22;;;15.90;99.90;;;;;;4881531;29;20039;-85
2023/07/16 04:18:29;;;;;;;8.90;4.57;;;16.00;99.90;;;;;;4896809;29;20503;-85
2023/07/16 04:20:55;;;;;;;9.80;4.75;;;16.00;99.90;;;;;;4895512;29;20036;-85
2023/07/16 04:23:22;;;;;;;11.02;4.85;;;16.00;99.90;;;;;;4896958;29;20036;-85
2023/07/16 04:25:53;;;;;;;11.02;4.60;;;16.00;99.90;;;;;;4896358;29;20043;-86
2023/07/16 04:28:18;;;;;;;9.98;4.45;;;16.00;99.90;;;;;;4896878;29;20067;-85
2023/07/16 04:30:44;;;;;;;13.38;3.90;;;16.00;99.90;;;;;;4896886;29;20507;-86
2023/07/16 04:33:10;;;;;;;7.70;4.53;;;16.00;99.90;;;;;;4881005;29;20040;-86
2023/07/16 04:35:35;;;;;;;8.00;4.35;;;16.00;99.90;;;;;;4880509;29;20071;-86
2023/07/16 04:38:01;;;;;;;14.77;4.63;;;16.10;99.90;;;;;;4882041;29;20036;-84
2023/07/16 04:40:29;;;;;;;10.13;4.40;;;16.10;99.90;;;;;;4897391;29;20051;-85
2023/07/16 04:42:55;;;;;;;10.32;4.18;;;16.10;99.90;;;;;;4896456;29;20444;-85
2023/07/16 04:45:20;;;;;;;8.75;4.03;;;16.10;99.90;;;;;;4881096;29;20040;-84
2023/07/16 04:47:46;;;;;;;7.30;4.25;;;16.10;99.90;;;;;;4896203;29;20447;-85
2023/07/16 04:50:12;;;;;;;10.02;4.18;;;16.10;99.90;;;;;;4895547;29;20485;-86
2023/07/16 04:52:38;;;;;;;11.55;4.55;;;16.20;99.90;;;;;;4881123;29;20048;-84
2023/07/16 04:55:04;;;;;;;9.68;4.55;;;16.20;99.90;;;;;;4910664;29;20066;-85
2023/07/16 04:57:29;;;;;;;7.35;4.18;;;16.20;99.90;;;;;;4883799;29;20148;-87
2023/07/16 04:59:55;;;;;;;10.88;4.85;;;16.20;99.90;;;;;;4882941;29;20146;-84
2023/07/16 05:02:21;;;;;;;6.95;4.15;;;16.20;99.90;;;;;;4897534;29;20032;-85
2023/07/16 05:04:49;;;;;;;8.65;4.28;;;16.30;99.90;;;;;;4915222;29;20032;-85
2023/07/16 05:07:15;;;;;;;8.23;4.10;;;16.30;99.90;;;;;;4897129;29;20043;-85
2023/07/16 05:09:42;;;;;;;8.75;4.25;;;16.30;99.90;;;;;;4881048;29;20411;-86
2023/07/16 05:12:08;;;;;;;8.18;4.15;;;16.30;99.90;;;;;;4880558;29;20040;-85
2023/07/16 05:14:46;;;;;;;10.43;4.68;;;16.30;99.90;;;;;;4904826;29;20051;-85
2023/07/16 05:17:13;;;;;;;8.65;4.10;;;16.40;99.90;;;;;;4884072;29;20058;-84
2023/07/16 05:19:38;;;;;;;6.35;4.20;;;16.40;99.90;;;;;;4881657;29;20112;-84
2023/07/16 05:22:05;;;;;;;10.52;4.30;;;16.50;99.90;;;;;;4889018;29;20079;-85
2023/07/16 05:24:31;;;;;;;7.85;4.53;;;16.60;99.90;;;;;;4881023;29;20047;-86
2023/07/16 05:26:59;;;;;;;10.30;4.82;;;16.60;99.90;;;;;;4897329;29;20071;-85
2023/07/16 05:29:25;;;;;;;10.75;4.63;;;16.60;99.90;;;;;;4900176;29;20040;-86
2023/07/16 05:31:51;;;;;;;9.32;5.25;;;16.70;99.90;;;;;;4900580;29;20593;-85
2023/07/16 05:34:20;;;;;;;7.50;4.20;;;16.70;99.90;;;;;;4899805;29;20406;-86
2023/07/16 05:36:46;;;;;;;5.88;4.05;;;16.80;99.90;;;;;;4887320;29;20131;-86
2023/07/16 05:39:12;;;;;;;6.05;4.15;;;16.80;99.90;;;;;;4890875;29;20127;-87
2023/07/16 05:41:39;;;;;;;8.43;4.70;;;16.80;99.90;;;;;;4879518;29;20051;-86
2023/07/16 05:44:05;;;;;;;7.60;4.57;;;16.90;99.90;;;;;;4877827;29;20036;-86
2023/07/16 05:46:32;;;;;;;11.63;4.90;;;17.00;99.90;;;;;;4896966;29;20037;-86
2023/07/16 05:48:58;;;;;;;11.48;4.75;;;17.00;99.90;;;;;;4898578;29;20407;-87
2023/07/16 05:51:24;;;;;;;8.57;4.75;;;17.10;99.90;;;;;;4882247;29;20051;-85
2023/07/16 05:53:52;;;;;;;11.82;5.10;;;17.20;99.90;;;;;;4901201;29;20044;-86
2023/07/16 05:56:18;;;;;;;9.60;4.97;;;17.20;99.90;;;;;;4892553;29;20499;-86
2023/07/16 05:58:43;;;;;;;7.25;4.45;;;17.30;99.90;;;;;;4883911;29;20043;-86
2023/07/16 06:01:09;;;;;;;10.07;4.85;;;17.30;99.90;;;;;;4900476;29;20065;-87
2023/07/16 06:03:35;;;;;;;9.52;5.18;;;17.30;99.90;;;;;;4890577;29;20028;-87
2023/07/16 06:06:01;;;;;;;7.60;5.20;;;17.40;99.90;;;;;;4896970;29;20040;-87
2023/07/16 06:08:26;;;;;;;10.52;5.57;;;17.50;99.90;;;;;;4917050;29;20046;-87
2023/07/16 06:10:52;;;;;;;6.85;4.90;;;17.50;99.90;;;;;;4902607;29;20043;-87
2023/07/16 06:13:18;;;;;;;10.65;5.07;;;17.60;99.90;;;;;;4902344;29;20122;-86
2023/07/16 06:15:43;;;;;;;9.02;5.05;;;17.60;99.90;;;;;;4908051;29;20119;-86
2023/07/16 06:18:10;;;;;;;12.10;5.25;;;17.70;99.90;;;;;;4908369;29;20131;-87
2023/07/16 06:20:35;;;;;;;11.00;5.22;;;17.70;99.90;;;;;;4885887;29;20048;-86
2023/07/16 06:23:01;;;;;;;8.68;5.07;;;17.80;99.90;;;;;;4885811;29;20032;-84
2023/07/16 06:25:27;;;;;;;10.95;5.10;;;17.90;99.90;;;;;;4891189;29;20420;-85
2023/07/16 06:27:52;;;;;;;10.00;4.88;;;17.90;99.90;;;;;;4893483;29;20131;-84
2023/07/16 06:30:18;;;;;;;7.97;4.28;;;18.00;99.90;;;;;;4901811;29;20036;-86
2023/07/16 06:32:44;;;;;;;8.25;5.05;;;18.00;99.90;;;;;;4911321;29;20070;-84
2023/07/16 06:35:10;;;;;;;7.22;4.47;;;18.00;99.90;;;;;;4905395;29;20077;-84
2023/07/16 06:37:35;;;;;;;7.25;4.50;;;18.10;99.90;;;;;;4892718;29;20055;-83
2023/07/16 06:40:03;;;;;;;7.60;4.50;;;18.20;99.90;;;;;;4903750;29;20071;-84
2023/07/16 06:42:28;;;;;;;9.90;4.68;;;18.20;99.90;;;;;;4886506;29;20050;-83
2023/07/16 06:44:54;;;;;;;8.77;5.10;;;18.20;99.90;;;;;;4888583;29;20087;-84
2023/07/16 06:47:20;;;;;;;9.13;4.75;;;18.30;99.90;;;;;;4886484;29;20122;-83
2023/07/16 06:49:45;;;;;;;9.82;5.18;;;18.40;99.90;;;;;;4880024;29;20070;-83
2023/07/16 06:52:27;;;;;;;9.98;4.97;;;18.40;99.90;;;;;;4887495;29;20045;-83
2023/07/16 06:54:54;;;;;;;9.85;4.70;;;18.50;99.90;;;;;;4914358;29;20039;-84
2023/07/16 06:57:19;;;;;;;8.40;4.72;;;18.50;99.90;;;;;;4891583;29;20051;-84
2023/07/16 06:59:45;;;;;;;8.82;4.97;;;18.60;99.90;;;;;;4903134;29;20036;-84
2023/07/16 07:02:12;;;;;;;8.80;4.97;;;18.70;99.90;;;;;;4887852;29;20036;-84
2023/07/16 07:04:37;;;;;;;7.43;4.53;;;18.80;99.90;;;;;;4905238;29;20036;-83
2023/07/16 07:07:04;;;;;;;10.45;5.35;;;18.90;99.90;;;;;;4905444;29;20131;-84
2023/07/16 07:09:29;;;;;;;8.02;4.70;;;19.00;99.90;;;;;;4884543;29;20044;-83
2023/07/16 07:11:55;;;;;;;10.98;5.18;;;19.00;99.90;;;;;;4897963;29;20036;-84
2023/07/16 07:14:20;;;;;;;8.07;4.60;;;19.10;99.90;;;;;;4899327;29;20495;-85
2023/07/16 07:16:46;;;;;;;7.97;5.13;;;19.10;99.90;;;;;;4909121;29;20043;-84
2023/07/16 07:19:12;;;;;;;7.90;4.97;;;19.20;99.90;;;;;;4891159;29;20036;-84
2023/07/16 07:21:37;;;;;;;7.03;5.10;;;19.20;99.90;;;;;;4904824;29;20095;-84
2023/07/16 07:24:04;;;;;;;7.30;4.53;;;19.30;99.90;;;;;;4885359;29;20024;-83
2023/07/16 07:26:29;;;;;;;5.88;4.78;;;19.40;99.90;;;;;;4905721;29;20044;-85
2023/07/16 07:28:55;;;;;;;8.23;4.55;;;19.40;99.90;;;;;;4910201;29;20044;-84
2023/07/16 07:31:20;;;;;;;8.80;4.90;;;19.50;99.90;;;;;;4902882;29;20043;-85
2023/07/16 07:33:46;;;;;;;7.80;4.80;;;19.50;99.90;;;;;;4890930;29;20099;-84
2023/07/16 07:36:12;;;;;;;7.90;5.05;;;19.60;99.90;;;;;;4890326;29;20036;-84
2023/07/16 07:38:37;;;;;;;7.88;4.90;;;19.70;99.90;;;;;;4889185;29;20047;-84
2023/07/16 07:41:05;;;;;;;7.25;4.90;;;19.80;99.90;;;;;;4906254;29;20044;-85
2023/07/16 07:43:31;;;;;;;10.00;4.95;;;20.00;99.90;;;;;;4888830;29;20044;-85
2023/07/16 07:45:57;;;;;;;9.35;4.50;;;20.00;99.90;;;;;;4892455;29;20048;-84
2023/07/16 07:48:22;;;;;;;7.07;4.20;;;20.10;99.90;;;;;;4905887;29;20068;-84
2023/07/16 07:50:48;;;;;;;7.07;4.35;;;20.20;99.90;;;;;;4906522;29;20110;-84
2023/07/16 07:53:14;;;;;;;8.35;5.07;;;20.20;99.90;;;;;;4886607;29;20400;-84
2023/07/16 07:55:40;;;;;;;7.50;4.65;;;20.30;99.90;;;;;;4906415;29;20040;-84
2023/07/16 07:58:07;;;;;;;7.95;4.57;;;20.50;99.90;;;;;;4887048;29;20051;-85
2023/07/16 08:00:33;;;;;;;8.63;4.60;;;20.60;99.90;;;;;;4890656;29;20051;-84
2023/07/16 08:02:59;;;;;;;8.68;4.75;;;20.60;99.90;;;;;;4894514;29;20036;-85
2023/07/16 08:05:24;;;;;;;8.23;4.30;;;20.60;99.90;;;;;;4886436;29;20036;-84
2023/07/16 08:07:51;;;;;;;8.68;4.57;;;20.70;99.90;;;;;;4896469;29;20044;-84
2023/07/16 08:10:17;;;;;;;5.85;3.92;;;20.80;99.90;;;;;;4882095;29;20036;-84
2023/07/16 08:12:42;;;;;;;7.47;4.50;;;20.90;99.90;;;;;;4898352;29;20051;-84
2023/07/16 08:15:13;;;;;;;7.95;4.45;;;21.00;99.90;;;;;;4909478;29;20044;-84
2023/07/16 08:17:42;;;;;;;8.27;4.65;;;21.20;99.90;;;;;;4897405;29;20051;-84
2023/07/16 08:20:09;;;;;;;7.60;4.40;;;21.50;99.90;;;;;;4894259;29;20047;-84
2023/07/16 08:22:34;;;;;;;9.00;4.70;;;21.50;99.90;;;;;;4897565;29;20526;-85
2023/07/16 08:25:00;;;;;;;6.95;4.60;;;21.50;99.90;;;;;;4897070;29;20119;-85
2023/07/16 08:27:26;;;;;;;7.65;4.40;;;21.70;99.90;;;;;;4881937;29;20036;-85
2023/07/16 08:29:51;;;;;;;7.38;4.45;;;21.60;99.90;;;;;;4896876;29;20144;-85
2023/07/16 08:32:18;;;;;;;8.25;4.60;;;21.60;99.90;;;;;;4881563;29;20040;-86
2023/07/16 08:34:43;;;;;;;8.60;4.28;;;21.50;99.90;;;;;;4908826;29;20047;-85
2023/07/16 08:37:09;;;;;;;7.63;4.53;;;21.50;99.90;;;;;;4897384;29;20040;-86
2023/07/16 08:39:35;;;;;;;9.30;4.93;;;21.50;99.90;;;;;;4897123;29;20418;-85
2023/07/16 08:42:01;;;;;;;8.02;4.57;;;21.40;99.90;;;;;;4882173;29;20044;-85
2023/07/16 08:44:28;;;;;;;6.85;4.65;;;21.30;99.90;;;;;;4881570;29;20048;-85
2023/07/16 08:46:54;;;;;;;7.05;4.45;;;21.10;99.90;;;;;;4882542;29;20032;-84
2023/07/16 08:49:21;;;;;;;5.43;4.25;;;20.90;99.90;;;;;;4882040;29;20036;-85
2023/07/16 08:51:48;;;;;;;8.57;4.95;;;20.80;99.90;;;;;;4883720;29;20048;-84
2023/07/16 08:54:16;;;;;;;7.05;4.93;;;20.70;99.90;;;;;;4901132;29;20044;-84
2023/07/16 08:56:47;;;;;;;9.43;4.93;;;20.70;99.90;;;;;;4908080;29;20515;-84
2023/07/16 08:59:14;;;;;;;8.20;4.90;;;20.70;99.90;;;;;;4898789;29;20058;-84
2023/07/16 09:01:40;;;;;;;9.32;4.97;;;20.60;99.90;;;;;;4898883;29;20621;-84
2023/07/16 09:04:05;;;;;;;7.95;4.57;;;20.60;99.90;;;;;;4882826;29;20115;-84
2023/07/16 09:06:31;;;;;;;6.45;4.70;;;20.70;99.90;;;;;;4898109;29;20035;-84
2023/07/16 09:08:58;;;;;;;8.00;4.82;;;21.00;99.90;;;;;;4897196;29;20032;-84
2023/07/16 09:11:23;;;;;;;7.85;5.15;;;21.50;99.90;;;;;;4886841;29;20504;-85
2023/07/16 09:13:49;;;;;;;7.30;4.90;;;22.00;99.90;;;;;;4884047;29;20122;-86
2023/07/16 09:16:18;;;;;;;6.50;4.75;;;22.20;99.90;;;;;;4880879;29;20581;-84
2023/07/16 09:18:45;;;;;;;6.22;4.20;;;22.20;99.90;;;;;;4895587;29;20051;-85
2023/07/16 09:21:11;;;;;;;7.57;4.57;;;22.20;99.90;;;;;;4899613;29;20104;-86
2023/07/16 09:23:37;;;;;;;6.30;4.30;;;22.00;99.90;;;;;;4895368;29;20042;-87
2023/07/16 09:26:06;;;;;;;7.38;4.75;;;21.80;99.90;;;;;;4906498;29;20115;-86
2023/07/16 09:28:33;;;;;;;6.63;3.97;;;22.00;99.90;;;;;;4908828;29;20040;-84
2023/07/16 09:31:05;;;;;;;6.75;4.65;;;22.10;99.90;;;;;;4889756;29;20068;-84
2023/07/16 09:33:31;;;;;;;6.28;4.28;;;22.30;99.90;;;;;;4886874;29;20040;-85
2023/07/16 09:35:58;;;;;;;8.02;4.82;;;22.50;99.90;;;;;;4904080;29;20048;-86
2023/07/16 09:38:24;;;;;;;8.85;4.93;;;22.60;99.90;;;;;;4890916;29;20044;-86
2023/07/16 09:40:51;;;;;;;10.45;4.80;;;22.40;99.90;;;;;;4903229;29;20059;-87
2023/07/16 09:43:17;;;;;;;8.18;4.97;;;22.10;99.90;;;;;;4905569;29;20028;-84
2023/07/16 09:45:43;;;;;;;8.90;4.93;;;21.90;99.90;;;;;;4895509;29;20409;-83
2023/07/16 09:48:09;;;;;;;7.68;4.72;;;21.80;99.90;;;;;;4888411;29;20044;-85
2023/07/16 09:50:36;;;;;;;6.40;4.78;;;21.90;99.90;;;;;;4907718;29;20047;-84
2023/07/16 09:53:07;;;;;;;7.78;4.65;;;21.90;99.90;;;;;;4890870;29;20045;-84
2023/07/16 09:55:34;;;;;;;8.52;4.75;;;22.00;99.90;;;;;;4899818;29;20528;-87
2023/07/16 09:58:02;;;;;;;6.10;4.68;;;22.20;99.90;;;;;;4900386;29;20067;-86
2023/07/16 10:00:29;;;;;;;7.85;4.57;;;22.60;99.90;;;;;;4889095;29;20067;-85
2023/07/16 10:02:55;;;;;;;6.00;4.70;;;22.90;99.90;;;;;;4898243;29;20430;-86
2023/07/16 10:05:28;;;;;;;9.57;5.57;;;22.90;99.90;;;;;;4888216;29;20040;-87
2023/07/16 10:07:58;;;;;;;8.45;5.38;;;22.60;99.90;;;;;;4887860;29;20036;-85
2023/07/16 10:10:27;;;;;;;6.68;4.72;;;22.60;99.90;;;;;;4891685;29;20064;-85
2023/07/16 10:13:01;;;;;;;7.72;5.05;;;22.50;99.90;;;;;;4901080;29;20036;-85
2023/07/16 10:15:31;;;;;;;9.35;5.20;;;22.30;99.90;;;;;;4898565;29;20052;-85
2023/07/16 10:17:57;;;;;;;8.02;5.00;;;22.30;99.90;;;;;;4885479;29;20055;-85
2023/07/16 10:20:42;;;;;;;8.35;5.30;;;22.60;99.90;;;;;;4905203;29;20039;-85
2023/07/16 10:23:16;;;;;;;6.50;4.72;;;22.60;99.90;;;;;;4884294;29;20100;-84
2023/07/16 10:25:59;;;;;;;6.72;4.50;;;22.40;99.90;;;;;;4919700;29;20082;-85
2023/07/16 10:28:24;;;;;;;7.15;4.93;;;22.10;99.90;;;;;;4909472;29;20048;-85
2023/07/16 10:30:50;;;;;;;9.88;5.28;;;21.90;99.90;;;;;;4908038;29;20057;-84
2023/07/16 10:33:16;;;;;;;6.78;4.88;;;21.70;99.90;;;;;;4893311;29;20092;-85
2023/07/16 10:35:42;;;;;;;6.18;5.15;;;21.50;99.90;;;;;;4904764;29;20040;-84
2023/07/16 10:38:08;;;;;;;6.60;5.30;;;21.40;99.90;;;;;;4890396;29;20036;-86
2023/07/16 10:40:40;;;;;;;8.88;5.40;;;21.30;99.90;;;;;;4887588;29;20082;-84
2023/07/16 10:43:06;;;;;;;8.55;5.53;;;21.50;99.90;;;;;;4890018;29;20032;-84
2023/07/16 10:45:33;;;;;;;5.65;4.65;;;21.60;99.90;;;;;;4899490;29;20036;-84
2023/07/16 10:47:58;;;;;;;8.32;4.47;;;21.90;99.90;;;;;;4905776;29;20071;-83
2023/07/16 10:50:24;;;;;;;6.57;4.20;;;22.10;99.90;;;;;;4909547;29;20103;-81
2023/07/16 10:52:52;;;;;;;6.10;4.22;;;22.30;99.90;;;;;;4889943;29;20051;-83
2023/07/16 10:55:18;;;;;;;6.18;3.97;;;22.30;99.90;;;;;;4892614;29;20044;-84
2023/07/16 10:57:44;;;;;;;7.55;4.50;;;22.20;99.90;;;;;;4903749;29;20492;-85
2023/07/16 11:00:20;;;;;;;6.15;4.38;;;22.00;99.90;;;;;;4890273;29;20043;-85
2023/07/16 11:02:47;;;;;;;5.30;4.18;;;22.00;99.90;;;;;;4903731;29;20107;-85
2023/07/16 11:05:14;;;;;;;6.57;4.40;;;21.90;99.90;;;;;;4876823;29;20028;-85
2023/07/16 11:07:47;;;;;;;6.35;4.10;;;22.00;99.90;;;;;;4886978;29;20491;-80
2023/07/16 11:10:17;;;;;;;9.00;4.85;;;22.30;99.90;;;;;;4888868;29;20043;-80
2023/07/16 11:12:43;;;;;;;9.50;5.00;;;22.40;99.90;;;;;;4891143;29;20071;-78
2023/07/16 11:15:10;;;;;;;15.35;4.95;;;22.60;99.90;;;;;;4904839;29;20119;-82
2023/07/16 11:17:39;;;;;;;6.70;5.20;;;22.50;99.90;;;;;;4890408;29;20052;-79
2023/07/16 11:20:07;;;;;;;10.38;5.30;;;22.30;99.90;;;;;;4904600;29;20078;-79
2023/07/16 11:22:36;;;;;;;7.63;5.25;;;22.50;99.90;;;;;;4881916;29;20041;-79
2023/07/16 11:25:02;;;;;;;7.13;4.95;;;22.80;99.90;;;;;;4882835;29;20043;-80
2023/07/16 11:27:32;;;;;;;6.35;5.20;;;23.10;99.90;;;;;;4876261;29;20045;-83
2023/07/16 11:30:00;;;;;;;7.60;5.80;;;23.80;99.90;;;;;;4901196;29;20061;-81
2023/07/16 11:32:48;;;;;;;10.20;5.32;;;24.00;99.90;;;;;;4886999;29;20049;-80
2023/07/16 11:35:19;;;;;;;21.73;6.43;;;24.20;97.70;;;;;;4887921;29;20041;-85
2023/07/16 11:37:47;;;;;;;9.85;5.18;;;23.90;97.50;;;;;;4876954;29;20076;-82
2023/07/16 11:40:20;;;;;;;7.45;5.07;;;23.60;97.50;;;;;;4899426;29;20107;-82
2023/07/16 11:42:46;;;;;;;10.90;4.90;;;23.10;97.50;;;;;;4886688;29;20045;-80
2023/07/16 11:45:20;;;;;;;7.35;4.82;;;22.80;98.40;;;;;;4894092;29;20134;-81
2023/07/16 11:47:46;;;;;;;5.00;4.47;;;22.40;97.70;;;;;;4892252;29;20059;-80
2023/07/16 11:50:13;;;;;;;7.80;4.85;;;22.30;99.40;;;;;;4896706;29;20526;-81
2023/07/16 11:52:40;;;;;;;6.40;4.50;;;22.20;99.90;;;;;;4892471;29;20128;-82
2023/07/16 11:55:06;;;;;;;9.35;5.40;;;22.00;99.90;;;;;;4879573;29;20443;-79
2023/07/16 11:57:32;;;;;;;7.57;4.20;;;22.00;99.90;;;;;;4895765;29;20480;-80
2023/07/16 11:59:58;;;;;;;6.53;4.90;;;22.00;99.90;;;;;;4875140;29;20037;-79
2023/07/16 12:02:25;;;;;;;6.28;4.55;;;22.00;99.90;;;;;;4888998;29;20123;-86
2023/07/16 12:04:51;;;;;;;8.90;4.88;;;22.00;99.90;;;;;;4876138;29;20044;-84
2023/07/16 12:07:37;;;;;;;7.63;4.82;;;21.90;99.90;;;;;;4895318;29;20630;-84
2023/07/16 12:10:05;;;;;;;8.00;4.68;;;21.80;99.90;;;;;;4874041;29;20044;-84
2023/07/16 12:12:31;;;;;;;7.80;4.47;;;21.60;99.90;;;;;;4887363;29;20131;-83
2023/07/16 12:14:57;;;;;;;7.47;4.43;;;21.70;99.90;;;;;;4892600;29;20028;-84
2023/07/16 12:17:23;;;;;;;7.10;5.35;;;21.80;99.90;;;;;;4892912;29;20054;-83
2023/07/16 12:19:48;;;;;;;7.25;5.40;;;22.00;99.90;;;;;;4889026;29;20043;-84
2023/07/16 12:22:17;;;;;;;6.13;4.38;;;22.10;99.90;;;;;;4893252;29;20044;-81
2023/07/16 12:24:43;;;;;;;8.70;4.55;;;22.10;99.90;;;;;;4881822;29;20048;-84
2023/07/16 12:27:09;;;;;;;6.32;4.70;;;22.10;99.90;;;;;;4886783;29;20043;-83
2023/07/16 12:29:34;;;;;;;7.00;4.75;;;22.10;99.90;;;;;;4906075;29;20052;-80
2023/07/16 12:32:00;;;;;;;7.20;4.70;;;22.10;99.90;;;;;;4890092;29;20036;-86
2023/07/16 12:34:26;;;;;;;6.20;4.35;;;22.20;99.90;;;;;;4892648;29;20032;-85
2023/07/16 12:36:53;;;;;;;5.63;4.32;;;22.20;99.90;;;;;;4898219;29;20044;-86
2023/07/16 12:39:19;;;;;;;7.65;4.63;;;22.20;99.90;;;;;;4894409;29;20125;-82
2023/07/16 12:41:46;;;;;;;7.80;4.90;;;22.20;99.90;;;;;;4898404;29;20135;-87
2023/07/16 12:44:11;;;;;;;8.18;4.50;;;22.40;99.90;;;;;;4916720;29;20043;-88